sensor_id;sensor_type;location;lat;lon;timestamp;P1;durP1;ratioP1;P2;durP2;ratioP2
77362;SDS011;66428;47.322;9.432;2024-02-23T00:01:29;0.30;;;0.30;;
77362;SDS011;66428;47.322;9.432;2024-02-23T00:03:55;0.22;;;0.22;;
77362;SDS011;66428;47.322;9.432;2024-02-23T00:06:23;0.40;;;0.40;;
77362;SDS011;66428;47.322;9.432;2024-02-23T00:08:54;0.20;;;0.20;;
77362;SDS011;66428;47.322;9.432;2024-02-23T00:11:22;0.20;;;0.20;;
77362;SDS011;66428;47.322;9.432;2024-02-23T00:13:52;0.20;;;0.20;;
77362;SDS011;66428;47.322;9.432;2024-02-23T00:16:21;0.20;;;0.20;;
77362;SDS011;66428;47.322;9.432;2024-02-23T00:18:49;0.20;;;0.20;;
77362;SDS011;66428;47.322;9.432;2024-02-23T00:21:17;0.38;;;0.38;;
77362;SDS011;66428;47.322;9.432;2024-02-23T00:23:44;0.22;;;0.22;;
77362;SDS011;66428;47.322;9.432;2024-02-23T00:26:12;0.22;;;0.22;;
77362;SDS011;66428;47.322;9.432;2024-02-23T00:28:40;0.30;;;0.30;;
77362;SDS011;66428;47.322;9.432;2024-02-23T00:31:09;0.30;;;0.30;;
77362;SDS011;66428;47.322;9.432;2024-02-23T00:33:38;0.30;;;0.30;;
77362;SDS011;66428;47.322;9.432;2024-02-23T00:36:08;0.30;;;0.30;;
77362;SDS011;66428;47.322;9.432;2024-02-23T00:38:36;0.47;;;0.40;;
77362;SDS011;66428;47.322;9.432;2024-02-23T00:41:04;0.20;;;0.20;;
77362;SDS011;66428;47.322;9.432;2024-02-23T00:43:37;0.20;;;0.20;;
77362;SDS011;66428;47.322;9.432;2024-02-23T00:46:05;0.32;;;0.32;;
77362;SDS011;66428;47.322;9.432;2024-02-23T00:48:32;1.17;;;0.50;;
77362;SDS011;66428;47.322;9.432;2024-02-23T00:51:02;0.30;;;0.30;;
77362;SDS011;66428;47.322;9.432;2024-02-23T00:53:30;0.20;;;0.20;;
77362;SDS011;66428;47.322;9.432;2024-02-23T00:55:58;0.20;;;0.20;;
77362;SDS011;66428;47.322;9.432;2024-02-23T00:58:26;0.30;;;0.30;;
77362;SDS011;66428;47.322;9.432;2024-02-23T01:00:53;0.30;;;0.30;;
77362;SDS011;66428;47.322;9.432;2024-02-23T01:03:21;0.30;;;0.30;;
77362;SDS011;66428;47.322;9.432;2024-02-23T01:05:49;0.25;;;0.22;;
77362;SDS011;66428;47.322;9.432;2024-02-23T01:08:20;0.20;;;0.20;;
77362;SDS011;66428;47.322;9.432;2024-02-23T01:10:48;0.28;;;0.28;;
77362;SDS011;66428;47.322;9.432;2024-02-23T01:13:18;0.30;;;0.20;;
77362;SDS011;66428;47.322;9.432;2024-02-23T01:15:46;0.25;;;0.25;;
77362;SDS011;66428;47.322;9.432;2024-02-23T01:18:16;0.30;;;0.30;;
77362;SDS011;66428;47.322;9.432;2024-02-23T01:20:44;0.10;;;0.10;;
77362;SDS011;66428;47.322;9.432;2024-02-23T01:23:12;0.20;;;0.20;;
77362;SDS011;66428;47.322;9.432;2024-02-23T01:25:41;0.55;;;0.43;;
77362;SDS011;66428;47.322;9.432;2024-02-23T01:28:11;0.30;;;0.30;;
77362;SDS011;66428;47.322;9.432;2024-02-23T01:30:39;1.17;;;0.20;;
77362;SDS011;66428;47.322;9.432;2024-02-23T01:33:07;0.40;;;0.40;;
77362;SDS011;66428;47.322;9.432;2024-02-23T01:35:34;0.30;;;0.30;;
77362;SDS011;66428;47.322;9.432;2024-02-23T01:38:03;1.05;;;0.55;;
77362;SDS011;66428;47.322;9.432;2024-02-23T01:40:31;1.23;;;0.30;;
77362;SDS011;66428;47.322;9.432;2024-02-23T01:43:04;0.60;;;0.45;;
77362;SDS011;66428;47.322;9.432;2024-02-23T01:45:32;0.20;;;0.20;;
77362;SDS011;66428;47.322;9.432;2024-02-23T01:48:00;0.20;;;0.20;;
77362;SDS011;66428;47.322;9.432;2024-02-23T01:50:28;0.40;;;0.40;;
77362;SDS011;66428;47.322;9.432;2024-02-23T01:52:59;0.77;;;0.40;;
77362;SDS011;66428;47.322;9.432;2024-02-23T01:55:27;1.02;;;0.43;;
77362;SDS011;66428;47.322;9.432;2024-02-23T01:58:00;0.45;;;0.30;;
77362;SDS011;66428;47.322;9.432;2024-02-23T02:00:32;1.05;;;0.32;;
77362;SDS011;66428;47.322;9.432;2024-02-23T02:03:02;0.22;;;0.22;;
77362;SDS011;66428;47.322;9.432;2024-02-23T02:05:32;0.45;;;0.38;;
77362;SDS011;66428;47.322;9.432;2024-02-23T02:08:00;0.32;;;0.32;;
77362;SDS011;66428;47.322;9.432;2024-02-23T02:10:28;0.28;;;0.28;;
77362;SDS011;66428;47.322;9.432;2024-02-23T02:12:55;0.30;;;0.30;;
77362;SDS011;66428;47.322;9.432;2024-02-23T02:15:28;0.65;;;0.65;;
77362;SDS011;66428;47.322;9.432;2024-02-23T02:17:57;0.30;;;0.30;;
77362;SDS011;66428;47.322;9.432;2024-02-23T02:20:25;0.45;;;0.40;;
77362;SDS011;66428;47.322;9.432;2024-02-23T02:22:55;1.75;;;0.40;;
77362;SDS011;66428;47.322;9.432;2024-02-23T02:25:23;0.13;;;0.13;;
77362;SDS011;66428;47.322;9.432;2024-02-23T02:27:50;0.22;;;0.22;;
77362;SDS011;66428;47.322;9.432;2024-02-23T02:30:18;0.15;;;0.15;;
77362;SDS011;66428;47.322;9.432;2024-02-23T02:32:46;0.30;;;0.22;;
77362;SDS011;66428;47.322;9.432;2024-02-23T02:35:15;0.30;;;0.30;;
77362;SDS011;66428;47.322;9.432;2024-02-23T02:37:43;0.20;;;0.20;;
77362;SDS011;66428;47.322;9.432;2024-02-23T02:40:13;0.35;;;0.25;;
77362;SDS011;66428;47.322;9.432;2024-02-23T02:42:43;0.47;;;0.32;;
77362;SDS011;66428;47.322;9.432;2024-02-23T02:45:11;0.20;;;0.20;;
77362;SDS011;66428;47.322;9.432;2024-02-23T02:47:41;0.45;;;0.30;;
77362;SDS011;66428;47.322;9.432;2024-02-23T02:50:09;0.30;;;0.30;;
77362;SDS011;66428;47.322;9.432;2024-02-23T02:52:38;2.40;;;0.35;;
77362;SDS011;66428;47.322;9.432;2024-02-23T02:55:06;0.32;;;0.25;;
77362;SDS011;66428;47.322;9.432;2024-02-23T02:57:34;0.70;;;0.32;;
77362;SDS011;66428;47.322;9.432;2024-02-23T03:00:03;2.30;;;0.22;;
77362;SDS011;66428;47.322;9.432;2024-02-23T03:02:31;0.17;;;0.17;;
77362;SDS011;66428;47.322;9.432;2024-02-23T03:04:59;0.32;;;0.32;;
77362;SDS011;66428;47.322;9.432;2024-02-23T03:07:26;0.43;;;0.43;;
77362;SDS011;66428;47.322;9.432;2024-02-23T03:09:56;1.00;;;0.40;;
77362;SDS011;66428;47.322;9.432;2024-02-23T03:12:23;0.60;;;0.40;;
77362;SDS011;66428;47.322;9.432;2024-02-23T03:14:53;0.25;;;0.22;;
77362;SDS011;66428;47.322;9.432;2024-02-23T03:17:22;1.30;;;0.47;;
77362;SDS011;66428;47.322;9.432;2024-02-23T03:19:50;0.30;;;0.28;;
77362;SDS011;66428;47.322;9.432;2024-02-23T03:22:19;0.50;;;0.45;;
77362;SDS011;66428;47.322;9.432;2024-02-23T03:24:47;0.38;;;0.30;;
77362;SDS011;66428;47.322;9.432;2024-02-23T03:27:16;0.20;;;0.20;;
77362;SDS011;66428;47.322;9.432;2024-02-23T03:29:46;0.30;;;0.30;;
77362;SDS011;66428;47.322;9.432;2024-02-23T03:32:14;1.05;;;0.73;;
77362;SDS011;66428;47.322;9.432;2024-02-23T03:34:42;1.13;;;0.32;;
77362;SDS011;66428;47.322;9.432;2024-02-23T03:37:10;0.50;;;0.40;;
77362;SDS011;66428;47.322;9.432;2024-02-23T03:39:40;3.70;;;0.60;;
77362;SDS011;66428;47.322;9.432;2024-02-23T03:42:08;0.50;;;0.50;;
77362;SDS011;66428;47.322;9.432;2024-02-23T03:44:37;0.38;;;0.35;;
77362;SDS011;66428;47.322;9.432;2024-02-23T03:47:05;0.70;;;0.38;;
77362;SDS011;66428;47.322;9.432;2024-02-23T03:49:33;0.82;;;0.43;;
77362;SDS011;66428;47.322;9.432;2024-02-23T03:52:03;0.60;;;0.38;;
77362;SDS011;66428;47.322;9.432;2024-02-23T03:54:31;0.60;;;0.43;;
77362;SDS011;66428;47.322;9.432;2024-02-23T03:56:59;0.52;;;0.52;;
77362;SDS011;66428;47.322;9.432;2024-02-23T03:59:27;1.75;;;0.43;;
77362;SDS011;66428;47.322;9.432;2024-02-23T04:01:56;1.00;;;0.60;;
77362;SDS011;66428;47.322;9.432;2024-02-23T04:04:26;0.43;;;0.43;;
77362;SDS011;66428;47.322;9.432;2024-02-23T04:06:54;1.17;;;0.77;;
77362;SDS011;66428;47.322;9.432;2024-02-23T04:09:24;0.75;;;0.40;;
77362;SDS011;66428;47.322;9.432;2024-02-23T04:11:52;0.82;;;0.70;;
77362;SDS011;66428;47.322;9.432;2024-02-23T04:14:22;1.73;;;0.60;;
77362;SDS011;66428;47.322;9.432;2024-02-23T04:16:50;1.30;;;0.60;;
77362;SDS011;66428;47.322;9.432;2024-02-23T04:19:19;0.60;;;0.55;;
77362;SDS011;66428;47.322;9.432;2024-02-23T04:21:46;0.43;;;0.40;;
77362;SDS011;66428;47.322;9.432;2024-02-23T04:24:17;0.60;;;0.20;;
77362;SDS011;66428;47.322;9.432;2024-02-23T04:26:45;0.88;;;0.43;;
77362;SDS011;66428;47.322;9.432;2024-02-23T04:29:13;1.35;;;0.70;;
77362;SDS011;66428;47.322;9.432;2024-02-23T04:31:43;1.45;;;0.40;;
77362;SDS011;66428;47.322;9.432;2024-02-23T04:34:10;0.77;;;0.57;;
77362;SDS011;66428;47.322;9.432;2024-02-23T04:36:42;1.23;;;0.45;;
77362;SDS011;66428;47.322;9.432;2024-02-23T04:39:09;1.15;;;0.55;;
77362;SDS011;66428;47.322;9.432;2024-02-23T04:41:37;0.57;;;0.43;;
77362;SDS011;66428;47.322;9.432;2024-02-23T04:44:05;1.95;;;0.93;;
77362;SDS011;66428;47.322;9.432;2024-02-23T04:46:33;3.60;;;1.45;;
77362;SDS011;66428;47.322;9.432;2024-02-23T04:49:01;2.30;;;1.08;;
77362;SDS011;66428;47.322;9.432;2024-02-23T04:51:31;2.33;;;1.30;;
77362;SDS011;66428;47.322;9.432;2024-02-23T04:54:00;3.53;;;1.33;;
77362;SDS011;66428;47.322;9.432;2024-02-23T04:56:27;3.08;;;0.80;;
77362;SDS011;66428;47.322;9.432;2024-02-23T04:58:56;1.00;;;0.75;;
77362;SDS011;66428;47.322;9.432;2024-02-23T05:01:24;3.22;;;0.60;;
77362;SDS011;66428;47.322;9.432;2024-02-23T05:03:52;2.40;;;0.70;;
77362;SDS011;66428;47.322;9.432;2024-02-23T05:06:22;1.38;;;0.88;;
77362;SDS011;66428;47.322;9.432;2024-02-23T05:08:49;1.00;;;0.45;;
77362;SDS011;66428;47.322;9.432;2024-02-23T05:11:19;0.93;;;0.55;;
77362;SDS011;66428;47.322;9.432;2024-02-23T05:13:47;1.88;;;0.73;;
77362;SDS011;66428;47.322;9.432;2024-02-23T05:16:18;1.17;;;0.60;;
77362;SDS011;66428;47.322;9.432;2024-02-23T05:18:45;1.45;;;0.43;;
77362;SDS011;66428;47.322;9.432;2024-02-23T05:21:14;0.77;;;0.43;;
77362;SDS011;66428;47.322;9.432;2024-02-23T05:23:44;0.57;;;0.22;;
77362;SDS011;66428;47.322;9.432;2024-02-23T05:26:12;0.65;;;0.57;;
77362;SDS011;66428;47.322;9.432;2024-02-23T05:28:42;1.10;;;0.60;;
77362;SDS011;66428;47.322;9.432;2024-02-23T05:31:12;0.73;;;0.30;;
77362;SDS011;66428;47.322;9.432;2024-02-23T05:33:42;2.75;;;1.20;;
77362;SDS011;66428;47.322;9.432;2024-02-23T05:36:14;0.95;;;0.60;;
77362;SDS011;66428;47.322;9.432;2024-02-23T05:38:42;1.33;;;0.70;;
77362;SDS011;66428;47.322;9.432;2024-02-23T05:41:12;1.33;;;0.75;;
77362;SDS011;66428;47.322;9.432;2024-02-23T05:43:44;4.28;;;1.50;;
77362;SDS011;66428;47.322;9.432;2024-02-23T05:46:12;3.25;;;1.70;;
77362;SDS011;66428;47.322;9.432;2024-02-23T05:48:39;5.30;;;3.03;;
77362;SDS011;66428;47.322;9.432;2024-02-23T05:51:07;1.98;;;1.23;;
77362;SDS011;66428;47.322;9.432;2024-02-23T05:53:37;3.80;;;2.20;;
77362;SDS011;66428;47.322;9.432;2024-02-23T05:56:05;1.55;;;0.98;;
77362;SDS011;66428;47.322;9.432;2024-02-23T05:58:34;3.05;;;1.30;;
77362;SDS011;66428;47.322;9.432;2024-02-23T06:01:04;2.33;;;0.70;;
77362;SDS011;66428;47.322;9.432;2024-02-23T06:03:31;3.20;;;1.08;;
77362;SDS011;66428;47.322;9.432;2024-02-23T06:06:01;4.43;;;1.50;;
77362;SDS011;66428;47.322;9.432;2024-02-23T06:08:29;4.65;;;1.50;;
77362;SDS011;66428;47.322;9.432;2024-02-23T06:10:57;4.43;;;1.45;;
77362;SDS011;66428;47.322;9.432;2024-02-23T06:13:26;1.05;;;0.70;;
77362;SDS011;66428;47.322;9.432;2024-02-23T06:15:56;1.88;;;0.90;;
77362;SDS011;66428;47.322;9.432;2024-02-23T06:18:25;2.03;;;0.77;;
77362;SDS011;66428;47.322;9.432;2024-02-23T06:20:53;1.05;;;0.63;;
77362;SDS011;66428;47.322;9.432;2024-02-23T06:23:21;0.93;;;0.50;;
77362;SDS011;66428;47.322;9.432;2024-02-23T06:25:49;1.30;;;0.70;;
77362;SDS011;66428;47.322;9.432;2024-02-23T06:28:20;0.80;;;0.70;;
77362;SDS011;66428;47.322;9.432;2024-02-23T06:30:48;1.25;;;0.73;;
77362;SDS011;66428;47.322;9.432;2024-02-23T06:33:16;1.15;;;0.82;;
77362;SDS011;66428;47.322;9.432;2024-02-23T06:35:47;0.68;;;0.52;;
77362;SDS011;66428;47.322;9.432;2024-02-23T06:38:15;0.57;;;0.50;;
77362;SDS011;66428;47.322;9.432;2024-02-23T06:40:43;1.38;;;0.43;;
77362;SDS011;66428;47.322;9.432;2024-02-23T06:43:18;0.63;;;0.60;;
77362;SDS011;66428;47.322;9.432;2024-02-23T06:45:49;1.75;;;0.65;;
77362;SDS011;66428;47.322;9.432;2024-02-23T06:48:17;0.80;;;0.52;;
77362;SDS011;66428;47.322;9.432;2024-02-23T06:50:48;1.40;;;0.73;;
77362;SDS011;66428;47.322;9.432;2024-02-23T06:53:16;2.63;;;1.00;;
77362;SDS011;66428;47.322;9.432;2024-02-23T06:55:44;2.72;;;0.70;;
77362;SDS011;66428;47.322;9.432;2024-02-23T06:58:12;1.00;;;0.70;;
77362;SDS011;66428;47.322;9.432;2024-02-23T07:00:41;2.08;;;0.75;;
77362;SDS011;66428;47.322;9.432;2024-02-23T07:03:11;0.98;;;0.73;;
77362;SDS011;66428;47.322;9.432;2024-02-23T07:05:38;2.45;;;1.27;;
77362;SDS011;66428;47.322;9.432;2024-02-23T07:08:10;2.72;;;0.90;;
77362;SDS011;66428;47.322;9.432;2024-02-23T07:10:38;1.80;;;1.08;;
77362;SDS011;66428;47.322;9.432;2024-02-23T07:13:06;1.58;;;0.82;;
77362;SDS011;66428;47.322;9.432;2024-02-23T07:15:36;1.02;;;0.63;;
77362;SDS011;66428;47.322;9.432;2024-02-23T07:18:06;1.90;;;0.90;;
77362;SDS011;66428;47.322;9.432;2024-02-23T07:20:35;1.23;;;0.88;;
77362;SDS011;66428;47.322;9.432;2024-02-23T07:23:03;1.23;;;0.77;;
77362;SDS011;66428;47.322;9.432;2024-02-23T07:25:35;3.25;;;0.90;;
77362;SDS011;66428;47.322;9.432;2024-02-23T07:28:05;1.27;;;0.70;;
77362;SDS011;66428;47.322;9.432;2024-02-23T07:30:33;2.92;;;1.05;;
77362;SDS011;66428;47.322;9.432;2024-02-23T07:33:03;2.95;;;0.90;;
77362;SDS011;66428;47.322;9.432;2024-02-23T07:35:34;4.22;;;1.17;;
77362;SDS011;66428;47.322;9.432;2024-02-23T07:38:02;1.60;;;0.80;;
77362;SDS011;66428;47.322;9.432;2024-02-23T07:40:30;1.13;;;0.73;;
77362;SDS011;66428;47.322;9.432;2024-02-23T07:43:00;2.83;;;0.98;;
77362;SDS011;66428;47.322;9.432;2024-02-23T07:45:28;3.10;;;1.20;;
77362;SDS011;66428;47.322;9.432;2024-02-23T07:47:58;3.03;;;0.90;;
77362;SDS011;66428;47.322;9.432;2024-02-23T07:50:26;1.70;;;0.90;;
77362;SDS011;66428;47.322;9.432;2024-02-23T07:52:53;1.63;;;1.10;;
77362;SDS011;66428;47.322;9.432;2024-02-23T07:55:23;3.72;;;1.38;;
77362;SDS011;66428;47.322;9.432;2024-02-23T07:57:53;2.20;;;1.17;;
77362;SDS011;66428;47.322;9.432;2024-02-23T08:00:28;1.95;;;0.95;;
77362;SDS011;66428;47.322;9.432;2024-02-23T08:02:56;2.38;;;0.95;;
77362;SDS011;66428;47.322;9.432;2024-02-23T08:05:28;5.28;;;1.42;;
77362;SDS011;66428;47.322;9.432;2024-02-23T08:07:58;2.35;;;1.40;;
77362;SDS011;66428;47.322;9.432;2024-02-23T08:10:26;2.70;;;1.35;;
77362;SDS011;66428;47.322;9.432;2024-02-23T08:12:54;2.20;;;1.40;;
77362;SDS011;66428;47.322;9.432;2024-02-23T08:15:24;4.55;;;1.25;;
77362;SDS011;66428;47.322;9.432;2024-02-23T08:17:53;3.38;;;1.38;;
77362;SDS011;66428;47.322;9.432;2024-02-23T08:20:23;3.05;;;1.00;;
77362;SDS011;66428;47.322;9.432;2024-02-23T08:22:51;4.63;;;1.73;;
77362;SDS011;66428;47.322;9.432;2024-02-23T08:25:19;1.45;;;1.00;;
77362;SDS011;66428;47.322;9.432;2024-02-23T08:27:47;2.78;;;1.13;;
77362;SDS011;66428;47.322;9.432;2024-02-23T08:30:15;3.28;;;1.02;;
77362;SDS011;66428;47.322;9.432;2024-02-23T08:32:43;2.13;;;0.93;;
77362;SDS011;66428;47.322;9.432;2024-02-23T08:35:14;3.05;;;1.45;;
77362;SDS011;66428;47.322;9.432;2024-02-23T08:37:44;1.65;;;0.73;;
77362;SDS011;66428;47.322;9.432;2024-02-23T08:40:12;3.33;;;0.93;;
77362;SDS011;66428;47.322;9.432;2024-02-23T08:42:40;7.75;;;4.93;;
77362;SDS011;66428;47.322;9.432;2024-02-23T08:45:09;3.78;;;2.17;;
77362;SDS011;66428;47.322;9.432;2024-02-23T08:47:39;3.22;;;2.17;;
77362;SDS011;66428;47.322;9.432;2024-02-23T08:50:07;4.40;;;1.92;;
77362;SDS011;66428;47.322;9.432;2024-02-23T08:52:36;3.08;;;0.75;;
77362;SDS011;66428;47.322;9.432;2024-02-23T08:55:07;2.30;;;1.02;;
77362;SDS011;66428;47.322;9.432;2024-02-23T08:57:37;2.92;;;0.80;;
77362;SDS011;66428;47.322;9.432;2024-02-23T09:00:08;1.15;;;0.85;;
77362;SDS011;66428;47.322;9.432;2024-02-23T09:02:36;2.38;;;1.17;;
77362;SDS011;66428;47.322;9.432;2024-02-23T09:05:05;2.55;;;1.35;;
77362;SDS011;66428;47.322;9.432;2024-02-23T09:07:33;2.90;;;0.82;;
77362;SDS011;66428;47.322;9.432;2024-02-23T09:10:02;2.63;;;0.70;;
77362;SDS011;66428;47.322;9.432;2024-02-23T09:12:31;1.85;;;0.80;;
77362;SDS011;66428;47.322;9.432;2024-02-23T09:14:59;0.68;;;0.38;;
77362;SDS011;66428;47.322;9.432;2024-02-23T09:17:29;0.98;;;0.50;;
77362;SDS011;66428;47.322;9.432;2024-02-23T09:19:57;1.08;;;0.65;;
77362;SDS011;66428;47.322;9.432;2024-02-23T09:22:25;0.93;;;0.52;;
77362;SDS011;66428;47.322;9.432;2024-02-23T09:24:52;3.50;;;0.75;;
77362;SDS011;66428;47.322;9.432;2024-02-23T09:27:24;3.85;;;1.08;;
77362;SDS011;66428;47.322;9.432;2024-02-23T09:29:55;2.58;;;1.08;;
77362;SDS011;66428;47.322;9.432;2024-02-23T09:32:26;1.75;;;0.95;;
77362;SDS011;66428;47.322;9.432;2024-02-23T09:34:54;2.70;;;1.27;;
77362;SDS011;66428;47.322;9.432;2024-02-23T09:37:24;1.67;;;0.73;;
77362;SDS011;66428;47.322;9.432;2024-02-23T09:39:51;1.92;;;0.60;;
77362;SDS011;66428;47.322;9.432;2024-02-23T09:42:19;1.42;;;1.25;;
77362;SDS011;66428;47.322;9.432;2024-02-23T09:44:57;2.75;;;1.02;;
77362;SDS011;66428;47.322;9.432;2024-02-23T09:47:25;1.55;;;0.90;;
77362;SDS011;66428;47.322;9.432;2024-02-23T09:49:54;1.80;;;1.00;;
77362;SDS011;66428;47.322;9.432;2024-02-23T09:52:22;1.92;;;0.90;;
77362;SDS011;66428;47.322;9.432;2024-02-23T09:54:50;1.83;;;0.65;;
77362;SDS011;66428;47.322;9.432;2024-02-23T09:57:19;0.80;;;0.50;;
77362;SDS011;66428;47.322;9.432;2024-02-23T09:59:49;1.40;;;0.93;;
77362;SDS011;66428;47.322;9.432;2024-02-23T10:02:18;2.22;;;0.95;;
77362;SDS011;66428;47.322;9.432;2024-02-23T10:04:48;1.98;;;1.00;;
77362;SDS011;66428;47.322;9.432;2024-02-23T10:07:16;1.98;;;0.90;;
77362;SDS011;66428;47.322;9.432;2024-02-23T10:09:44;1.67;;;0.68;;
77362;SDS011;66428;47.322;9.432;2024-02-23T10:12:15;0.98;;;0.63;;
77362;SDS011;66428;47.322;9.432;2024-02-23T10:14:44;3.03;;;0.75;;
77362;SDS011;66428;47.322;9.432;2024-02-23T10:17:12;3.42;;;0.88;;
77362;SDS011;66428;47.322;9.432;2024-02-23T10:19:41;1.58;;;0.85;;
77362;SDS011;66428;47.322;9.432;2024-02-23T10:22:09;6.57;;;1.42;;
77362;SDS011;66428;47.322;9.432;2024-02-23T10:24:38;1.85;;;0.60;;
77362;SDS011;66428;47.322;9.432;2024-02-23T10:27:05;1.38;;;0.70;;
77362;SDS011;66428;47.322;9.432;2024-02-23T10:29:33;2.17;;;0.93;;
77362;SDS011;66428;47.322;9.432;2024-02-23T10:32:01;1.65;;;0.73;;
77362;SDS011;66428;47.322;9.432;2024-02-23T10:34:30;1.75;;;0.73;;
77362;SDS011;66428;47.322;9.432;2024-02-23T10:37:00;2.03;;;0.93;;
77362;SDS011;66428;47.322;9.432;2024-02-23T10:39:30;1.50;;;0.70;;
77362;SDS011;66428;47.322;9.432;2024-02-23T10:41:59;2.00;;;0.73;;
77362;SDS011;66428;47.322;9.432;2024-02-23T10:44:30;1.25;;;0.70;;
77362;SDS011;66428;47.322;9.432;2024-02-23T10:46:58;5.90;;;1.85;;
77362;SDS011;66428;47.322;9.432;2024-02-23T10:49:29;2.60;;;0.70;;
77362;SDS011;66428;47.322;9.432;2024-02-23T10:52:01;1.13;;;0.75;;
77362;SDS011;66428;47.322;9.432;2024-02-23T10:54:32;2.00;;;0.70;;
77362;SDS011;66428;47.322;9.432;2024-02-23T10:57:03;1.33;;;0.85;;
77362;SDS011;66428;47.322;9.432;2024-02-23T10:59:31;1.83;;;0.95;;
77362;SDS011;66428;47.322;9.432;2024-02-23T11:01:58;2.13;;;0.80;;
77362;SDS011;66428;47.322;9.432;2024-02-23T11:04:27;5.20;;;0.90;;
77362;SDS011;66428;47.322;9.432;2024-02-23T11:06:55;2.35;;;0.90;;
77362;SDS011;66428;47.322;9.432;2024-02-23T11:09:27;2.83;;;0.85;;
77362;SDS011;66428;47.322;9.432;2024-02-23T11:11:58;3.53;;;0.60;;
77362;SDS011;66428;47.322;9.432;2024-02-23T11:14:29;13.07;;;5.85;;
77362;SDS011;66428;47.322;9.432;2024-02-23T11:16:58;12.18;;;7.85;;
77362;SDS011;66428;47.322;9.432;2024-02-23T11:19:34;11.82;;;5.18;;
77362;SDS011;66428;47.322;9.432;2024-02-23T11:22:03;4.90;;;3.95;;
77362;SDS011;66428;47.322;9.432;2024-02-23T11:24:43;3.78;;;1.98;;
77362;SDS011;66428;47.322;9.432;2024-02-23T11:27:13;1.77;;;0.50;;
77362;SDS011;66428;47.322;9.432;2024-02-23T11:29:44;1.55;;;0.85;;
77362;SDS011;66428;47.322;9.432;2024-02-23T11:32:16;1.65;;;0.90;;
77362;SDS011;66428;47.322;9.432;2024-02-23T11:34:53;2.10;;;1.00;;
77362;SDS011;66428;47.322;9.432;2024-02-23T11:37:21;4.65;;;1.50;;
77362;SDS011;66428;47.322;9.432;2024-02-23T11:39:50;2.85;;;1.33;;
77362;SDS011;66428;47.322;9.432;2024-02-23T11:42:18;2.47;;;0.95;;
77362;SDS011;66428;47.322;9.432;2024-02-23T11:44:47;1.30;;;0.50;;
77362;SDS011;66428;47.322;9.432;2024-02-23T11:47:14;1.98;;;0.75;;
77362;SDS011;66428;47.322;9.432;2024-02-23T11:49:44;1.00;;;0.70;;
77362;SDS011;66428;47.322;9.432;2024-02-23T11:52:12;1.50;;;0.90;;
77362;SDS011;66428;47.322;9.432;2024-02-23T11:54:42;3.95;;;1.20;;
77362;SDS011;66428;47.322;9.432;2024-02-23T11:57:11;1.98;;;1.00;;
77362;SDS011;66428;47.322;9.432;2024-02-23T11:59:39;0.95;;;0.50;;
77362;SDS011;66428;47.322;9.432;2024-02-23T12:02:08;1.38;;;0.75;;
77362;SDS011;66428;47.322;9.432;2024-02-23T12:04:38;0.63;;;0.35;;
77362;SDS011;66428;47.322;9.432;2024-02-23T12:07:05;1.75;;;0.73;;
77362;SDS011;66428;47.322;9.432;2024-02-23T12:09:35;2.35;;;0.52;;
77362;SDS011;66428;47.322;9.432;2024-02-23T12:12:03;0.85;;;0.52;;
77362;SDS011;66428;47.322;9.432;2024-02-23T12:14:34;0.85;;;0.65;;
77362;SDS011;66428;47.322;9.432;2024-02-23T12:17:02;0.52;;;0.52;;
77362;SDS011;66428;47.322;9.432;2024-02-23T12:19:32;0.82;;;0.63;;
77362;SDS011;66428;47.322;9.432;2024-02-23T12:22:00;2.40;;;0.57;;
77362;SDS011;66428;47.322;9.432;2024-02-23T12:24:29;0.82;;;0.55;;
77362;SDS011;66428;47.322;9.432;2024-02-23T12:26:57;0.55;;;0.43;;
77362;SDS011;66428;47.322;9.432;2024-02-23T12:29:27;1.58;;;0.50;;
77362;SDS011;66428;47.322;9.432;2024-02-23T12:32:03;0.73;;;0.50;;
77362;SDS011;66428;47.322;9.432;2024-02-23T12:34:33;1.45;;;0.75;;
77362;SDS011;66428;47.322;9.432;2024-02-23T12:37:02;2.83;;;0.70;;
77362;SDS011;66428;47.322;9.432;2024-02-23T12:39:32;0.95;;;0.50;;
77362;SDS011;66428;47.322;9.432;2024-02-23T12:41:59;0.43;;;0.40;;
77362;SDS011;66428;47.322;9.432;2024-02-23T12:44:27;2.15;;;0.95;;
77362;SDS011;66428;47.322;9.432;2024-02-23T12:46:57;7.68;;;3.15;;
77362;SDS011;66428;47.322;9.432;2024-02-23T12:49:29;8.15;;;5.07;;
77362;SDS011;66428;47.322;9.432;2024-02-23T12:51:59;11.68;;;6.43;;
77362;SDS011;66428;47.322;9.432;2024-02-23T12:54:27;2.92;;;1.70;;
77362;SDS011;66428;47.322;9.432;2024-02-23T12:56:55;2.83;;;0.52;;
77362;SDS011;66428;47.322;9.432;2024-02-23T12:59:25;1.85;;;1.20;;
77362;SDS011;66428;47.322;9.432;2024-02-23T13:01:53;2.10;;;1.52;;
77362;SDS011;66428;47.322;9.432;2024-02-23T13:04:21;2.55;;;1.38;;
77362;SDS011;66428;47.322;9.432;2024-02-23T13:06:50;3.45;;;0.90;;
77362;SDS011;66428;47.322;9.432;2024-02-23T13:09:20;1.25;;;0.82;;
77362;SDS011;66428;47.322;9.432;2024-02-23T13:11:48;1.85;;;1.20;;
77362;SDS011;66428;47.322;9.432;2024-02-23T13:14:18;0.50;;;0.43;;
77362;SDS011;66428;47.322;9.432;2024-02-23T13:16:48;2.60;;;1.40;;
77362;SDS011;66428;47.322;9.432;2024-02-23T13:19:16;2.40;;;1.13;;
77362;SDS011;66428;47.322;9.432;2024-02-23T13:21:44;0.40;;;0.35;;
77362;SDS011;66428;47.322;9.432;2024-02-23T13:24:13;0.50;;;0.38;;
77362;SDS011;66428;47.322;9.432;2024-02-23T13:26:40;0.95;;;0.73;;
77362;SDS011;66428;47.322;9.432;2024-02-23T13:29:08;2.08;;;0.90;;
77362;SDS011;66428;47.322;9.432;2024-02-23T13:31:36;0.95;;;0.63;;
77362;SDS011;66428;47.322;9.432;2024-02-23T13:34:05;0.80;;;0.57;;
77362;SDS011;66428;47.322;9.432;2024-02-23T13:36:33;0.93;;;0.60;;
77362;SDS011;66428;47.322;9.432;2024-02-23T13:39:01;0.63;;;0.50;;
77362;SDS011;66428;47.322;9.432;2024-02-23T13:41:30;0.28;;;0.25;;
77362;SDS011;66428;47.322;9.432;2024-02-23T13:44:01;0.40;;;0.38;;
77362;SDS011;66428;47.322;9.432;2024-02-23T13:46:29;1.73;;;0.90;;
77362;SDS011;66428;47.322;9.432;2024-02-23T13:49:02;0.95;;;0.43;;
77362;SDS011;66428;47.322;9.432;2024-02-23T13:51:33;1.70;;;0.90;;
77362;SDS011;66428;47.322;9.432;2024-02-23T13:54:01;2.50;;;1.27;;
77362;SDS011;66428;47.322;9.432;2024-02-23T13:56:30;1.67;;;1.00;;
77362;SDS011;66428;47.322;9.432;2024-02-23T13:59:01;1.13;;;0.70;;
77362;SDS011;66428;47.322;9.432;2024-02-23T14:01:30;0.63;;;0.40;;
77362;SDS011;66428;47.322;9.432;2024-02-23T14:03:58;1.48;;;0.50;;
77362;SDS011;66428;47.322;9.432;2024-02-23T14:06:30;1.08;;;0.52;;
77362;SDS011;66428;47.322;9.432;2024-02-23T14:08:58;0.80;;;0.52;;
77362;SDS011;66428;47.322;9.432;2024-02-23T14:11:25;1.42;;;0.65;;
77362;SDS011;66428;47.322;9.432;2024-02-23T14:13:55;0.73;;;0.73;;
77362;SDS011;66428;47.322;9.432;2024-02-23T14:16:23;0.43;;;0.38;;
77362;SDS011;66428;47.322;9.432;2024-02-23T14:18:50;0.40;;;0.40;;
77362;SDS011;66428;47.322;9.432;2024-02-23T14:21:21;0.80;;;0.60;;
77362;SDS011;66428;47.322;9.432;2024-02-23T14:23:51;0.50;;;0.40;;
77362;SDS011;66428;47.322;9.432;2024-02-23T14:26:19;0.93;;;0.50;;
77362;SDS011;66428;47.322;9.432;2024-02-23T14:28:47;0.30;;;0.30;;
77362;SDS011;66428;47.322;9.432;2024-02-23T14:31:19;0.90;;;0.45;;
77362;SDS011;66428;47.322;9.432;2024-02-23T14:33:47;1.02;;;0.45;;
77362;SDS011;66428;47.322;9.432;2024-02-23T14:36:17;0.32;;;0.30;;
77362;SDS011;66428;47.322;9.432;2024-02-23T14:38:47;0.32;;;0.32;;
77362;SDS011;66428;47.322;9.432;2024-02-23T14:41:17;0.90;;;0.57;;
77362;SDS011;66428;47.322;9.432;2024-02-23T14:43:47;1.75;;;0.55;;
77362;SDS011;66428;47.322;9.432;2024-02-23T14:46:15;0.30;;;0.30;;
77362;SDS011;66428;47.322;9.432;2024-02-23T14:48:44;0.40;;;0.40;;
77362;SDS011;66428;47.322;9.432;2024-02-23T14:51:17;0.20;;;0.20;;
77362;SDS011;66428;47.322;9.432;2024-02-23T14:53:47;0.68;;;0.47;;
77362;SDS011;66428;47.322;9.432;2024-02-23T14:56:15;0.20;;;0.20;;
77362;SDS011;66428;47.322;9.432;2024-02-23T14:58:42;2.63;;;0.50;;